createdAt,value
2023-01-09T00:00:47.992Z,0.00
2023-01-09T00:01:47.932Z,0.00
2023-01-09T00:02:47.987Z,0.00
2023-01-09T00:03:48.000Z,0.00
2023-01-09T00:04:47.966Z,0.00
2023-01-09T00:05:47.879Z,0.00
2023-01-09T00:06:47.899Z,0.00
2023-01-09T00:07:47.904Z,0.00
2023-01-09T00:08:47.902Z,0.00
2023-01-09T00:09:47.849Z,0.00
2023-01-09T00:10:47.835Z,0.00
2023-01-09T00:11:47.864Z,0.00
2023-01-09T00:12:47.868Z,0.00
2023-01-09T00:13:47.793Z,0.00
2023-01-09T00:14:47.797Z,0.00
2023-01-09T00:15:47.797Z,0.00
2023-01-09T00:16:47.808Z,0.00
2023-01-09T00:17:47.783Z,0.00
2023-01-09T00:18:47.752Z,0.00
2023-01-09T00:19:47.731Z,0.00
2023-01-09T00:20:47.750Z,0.00
2023-01-09T00:21:47.746Z,0.00
2023-01-09T00:22:47.710Z,0.00
2023-01-09T00:23:47.697Z,0.00
2023-01-09T00:24:47.706Z,0.00
2023-01-09T00:25:47.679Z,0.00
2023-01-09T00:26:47.691Z,0.00
2023-01-09T00:27:47.643Z,0.00
2023-01-09T00:28:47.635Z,0.00
2023-01-09T00:29:47.713Z,0.00
2023-01-09T00:30:47.657Z,0.00
2023-01-09T00:31:47.610Z,0.00
2023-01-09T00:32:47.599Z,0.00
2023-01-09T00:33:47.587Z,0.00
2023-01-09T00:34:47.584Z,0.00
2023-01-09T00:35:47.583Z,0.00
2023-01-09T00:36:47.585Z,0.00
2023-01-09T00:37:47.548Z,0.00
2023-01-09T00:38:47.580Z,0.00
2023-01-09T00:39:47.522Z,0.00
2023-01-09T00:40:47.556Z,0.00
2023-01-09T00:41:47.543Z,0.00
2023-01-09T00:42:47.484Z,0.00
2023-01-09T00:43:47.480Z,0.00
2023-01-09T00:44:47.472Z,0.00
2023-01-09T00:45:47.478Z,0.00
2023-01-09T00:46:47.505Z,0.00
2023-01-09T00:47:47.428Z,0.00
2023-01-09T00:48:47.433Z,0.00
2023-01-09T00:49:47.415Z,0.00
2023-01-09T00:50:47.401Z,0.00
2023-01-09T00:51:47.408Z,0.00
2023-01-09T00:52:47.388Z,0.00
2023-01-09T00:53:47.395Z,0.00
2023-01-09T00:54:47.379Z,0.00
2023-01-09T00:55:47.351Z,0.00
2023-01-09T00:56:47.369Z,0.00
2023-01-09T00:57:47.346Z,0.00
2023-01-09T00:58:47.312Z,0.00
2023-01-09T00:59:47.288Z,0.00
2023-01-09T01:00:47.455Z,0.00
2023-01-09T01:01:47.388Z,0.00
2023-01-09T01:02:47.333Z,0.00
2023-01-09T01:03:47.283Z,0.00
2023-01-09T01:04:47.277Z,0.00
2023-01-09T01:05:47.227Z,0.00
2023-01-09T01:06:47.280Z,0.00
2023-01-09T01:07:47.332Z,0.00
2023-01-09T01:08:47.210Z,0.00
2023-01-09T01:09:47.200Z,0.00
2023-01-09T01:10:47.190Z,0.00
2023-01-09T01:11:47.197Z,0.00
2023-01-09T01:12:47.156Z,0.00
2023-01-09T01:13:47.152Z,0.00
2023-01-09T01:14:47.131Z,0.00
2023-01-09T01:15:47.127Z,0.00
2023-01-09T01:16:47.176Z,0.00
2023-01-09T01:17:47.116Z,0.00
2023-01-09T01:18:47.193Z,0.00
2023-01-09T01:19:47.101Z,0.00
2023-01-09T01:20:47.092Z,0.00
2023-01-09T01:21:47.096Z,0.00
2023-01-09T01:22:47.116Z,0.00
2023-01-09T01:23:47.048Z,0.00
2023-01-09T01:24:47.023Z,0.00
2023-01-09T01:25:47.016Z,0.00
2023-01-09T01:26:47.011Z,0.00
2023-01-09T01:27:46.983Z,0.00
2023-01-09T01:28:47.091Z,0.00
2023-01-09T01:29:46.979Z,0.00
2023-01-09T01:30:47.002Z,0.00
2023-01-09T01:31:46.955Z,0.00
2023-01-09T01:32:46.932Z,0.00
2023-01-09T01:33:46.939Z,0.00
2023-01-09T01:34:47.779Z,0.00
2023-01-09T01:35:46.907Z,0.00
2023-01-09T01:36:46.932Z,0.00
2023-01-09T01:37:46.899Z,0.00
2023-01-09T01:38:46.963Z,0.00
2023-01-09T01:39:46.879Z,0.00
2023-01-09T01:40:46.850Z,0.00
2023-01-09T01:41:46.887Z,0.00
2023-01-09T01:42:46.831Z,0.00
2023-01-09T01:43:46.833Z,0.00
2023-01-09T01:44:46.862Z,0.00
2023-01-09T01:45:46.857Z,0.00
2023-01-09T01:46:46.801Z,0.00
2023-01-09T01:47:46.785Z,0.00
2023-01-09T01:48:46.779Z,0.00
2023-01-09T01:49:46.791Z,0.00
2023-01-09T01:50:46.755Z,0.00
2023-01-09T01:51:46.722Z,0.00
2023-01-09T01:52:46.727Z,0.00
2023-01-09T01:53:46.707Z,0.00
2023-01-09T01:54:46.696Z,0.00
2023-01-09T01:55:46.716Z,0.00
2023-01-09T01:56:46.675Z,0.00
2023-01-09T01:57:46.701Z,0.00
2023-01-09T01:58:46.660Z,0.00
2023-01-09T01:59:46.700Z,0.00
2023-01-09T02:00:46.651Z,0.00
2023-01-09T02:01:46.725Z,0.00
2023-01-09T02:02:46.711Z,0.00
2023-01-09T02:03:46.604Z,0.00
2023-01-09T02:04:46.622Z,0.00
2023-01-09T02:05:46.607Z,0.00
2023-01-09T02:06:46.564Z,0.00
2023-01-09T02:07:46.577Z,0.00
2023-01-09T02:08:46.545Z,0.00
2023-01-09T02:09:46.564Z,0.00
2023-01-09T02:10:46.514Z,0.00
2023-01-09T02:11:46.545Z,0.00
2023-01-09T02:12:46.517Z,0.00
2023-01-09T02:13:46.497Z,0.00
2023-01-09T02:14:46.536Z,0.00
2023-01-09T02:15:46.596Z,0.00
2023-01-09T02:16:46.448Z,0.00
2023-01-09T02:17:46.473Z,0.00
2023-01-09T02:18:46.503Z,0.00
2023-01-09T02:19:46.460Z,0.00
2023-01-09T02:20:46.408Z,0.00
2023-01-09T02:21:46.412Z,0.00
2023-01-09T02:22:46.403Z,0.00
2023-01-09T02:23:46.408Z,0.00
2023-01-09T02:24:46.450Z,0.00
2023-01-09T02:25:46.363Z,0.00
2023-01-09T02:26:46.395Z,0.00
2023-01-09T02:27:46.363Z,0.00
2023-01-09T02:28:46.323Z,0.00
2023-01-09T02:29:46.355Z,0.00
2023-01-09T02:30:46.292Z,0.00
2023-01-09T02:31:46.355Z,0.00
2023-01-09T02:32:46.289Z,0.00
2023-01-09T02:33:46.289Z,0.00
2023-01-09T02:34:46.258Z,0.00
2023-01-09T02:35:46.297Z,0.00
2023-01-09T02:36:46.258Z,0.00
2023-01-09T02:37:46.241Z,0.00
2023-01-09T02:38:46.205Z,0.00
2023-01-09T02:39:46.241Z,0.00
2023-01-09T02:40:46.192Z,0.00
2023-01-09T02:41:46.177Z,0.00
2023-01-09T02:42:46.254Z,0.00
2023-01-09T02:43:46.163Z,0.00
2023-01-09T02:44:46.183Z,0.00
2023-01-09T02:45:46.254Z,0.00
2023-01-09T02:46:46.139Z,0.00
2023-01-09T02:47:46.131Z,0.00
2023-01-09T02:48:46.113Z,0.00
2023-01-09T02:49:46.115Z,0.00
2023-01-09T02:50:46.082Z,0.00
2023-01-09T02:51:46.075Z,0.00
2023-01-09T02:52:46.052Z,0.00
2023-01-09T02:53:46.107Z,0.00
2023-01-09T02:54:46.050Z,0.00
2023-01-09T02:55:46.031Z,0.00
2023-01-09T02:56:46.014Z,0.00
2023-01-09T02:57:46.028Z,0.00
2023-01-09T02:58:46.021Z,0.00
2023-01-09T02:59:45.979Z,0.00
2023-01-09T03:00:46.027Z,0.00
2023-01-09T03:01:46.126Z,0.00
2023-01-09T03:02:45.971Z,0.00
2023-01-09T03:03:45.959Z,0.00
2023-01-09T03:04:45.932Z,0.00
2023-01-09T03:05:45.936Z,0.00
2023-01-09T03:06:45.904Z,0.00
2023-01-09T03:07:45.887Z,0.00
2023-01-09T03:08:45.905Z,0.00
2023-01-09T03:09:45.866Z,0.00
2023-01-09T03:10:45.872Z,0.00
2023-01-09T03:11:45.855Z,0.00
2023-01-09T03:12:45.839Z,0.00
2023-01-09T03:13:45.857Z,0.00
2023-01-09T03:14:45.836Z,0.00
2023-01-09T03:15:45.815Z,0.00
2023-01-09T03:16:45.853Z,0.00
2023-01-09T03:17:45.781Z,0.00
2023-01-09T03:18:45.872Z,0.00
2023-01-09T03:19:45.811Z,0.00
2023-01-09T03:20:45.766Z,0.00
2023-01-09T03:21:45.746Z,0.00
2023-01-09T03:22:45.731Z,0.00
2023-01-09T03:23:45.738Z,0.00
2023-01-09T03:24:45.725Z,0.00
2023-01-09T03:25:45.703Z,0.00
2023-01-09T03:26:45.678Z,0.00
2023-01-09T03:27:45.682Z,0.00
2023-01-09T03:28:45.712Z,0.00
2023-01-09T03:29:45.652Z,0.00
2023-01-09T03:30:45.640Z,0.00
2023-01-09T03:31:45.642Z,0.00
2023-01-09T03:32:46.333Z,0.00
2023-01-09T03:33:45.643Z,0.00
2023-01-09T03:34:45.601Z,0.00
2023-01-09T03:35:45.707Z,0.00
2023-01-09T03:36:45.576Z,0.00
2023-01-09T03:37:45.560Z,0.00
2023-01-09T03:38:45.564Z,0.00
2023-01-09T03:39:45.546Z,0.00
2023-01-09T03:40:45.532Z,0.00
2023-01-09T03:41:45.538Z,0.00
2023-01-09T03:42:45.504Z,0.00
2023-01-09T03:43:45.516Z,0.00
2023-01-09T03:44:45.581Z,0.00
2023-01-09T03:45:45.503Z,0.00
2023-01-09T03:46:45.462Z,0.00
2023-01-09T03:47:45.456Z,0.00
2023-01-09T03:48:45.446Z,0.00
2023-01-09T03:49:45.440Z,0.00
2023-01-09T03:50:45.423Z,0.00
2023-01-09T03:51:45.407Z,0.00
2023-01-09T03:52:45.390Z,0.00
2023-01-09T03:53:45.391Z,0.00
2023-01-09T03:54:45.404Z,0.00
2023-01-09T03:55:45.360Z,0.00
2023-01-09T03:56:45.356Z,0.00
2023-01-09T03:57:45.374Z,0.00
2023-01-09T03:58:45.338Z,0.00
2023-01-09T03:59:45.370Z,0.00
2023-01-09T04:00:45.326Z,0.00
2023-01-09T04:01:45.455Z,0.00
2023-01-09T04:02:45.323Z,0.00
2023-01-09T04:03:45.326Z,0.00
2023-01-09T04:04:45.272Z,0.00
2023-01-09T04:05:45.278Z,0.00
2023-01-09T04:06:45.247Z,0.00
2023-01-09T04:07:45.234Z,0.00
2023-01-09T04:08:45.220Z,0.00
2023-01-09T04:09:45.227Z,0.00
2023-01-09T04:10:45.256Z,0.00
2023-01-09T04:11:45.205Z,0.00
2023-01-09T04:12:45.187Z,0.00
2023-01-09T04:13:45.206Z,0.00
2023-01-09T04:14:45.169Z,0.00
2023-01-09T04:15:45.236Z,0.00
2023-01-09T04:16:45.162Z,0.00
2023-01-09T04:17:45.126Z,0.00
2023-01-09T04:18:45.108Z,0.00
2023-01-09T04:19:45.113Z,0.00
2023-01-09T04:20:45.086Z,0.00
2023-01-09T04:21:45.085Z,0.00
2023-01-09T04:22:45.071Z,0.00
2023-01-09T04:23:45.059Z,0.00
2023-01-09T04:24:45.062Z,0.00
2023-01-09T04:25:45.033Z,0.00
2023-01-09T04:26:45.032Z,0.00
2023-01-09T04:27:45.016Z,0.00
2023-01-09T04:28:45.002Z,0.00
2023-01-09T04:29:44.998Z,0.00
2023-01-09T04:30:44.997Z,0.00
2023-01-09T04:31:45.082Z,0.00
2023-01-09T04:32:44.951Z,0.00
2023-01-09T04:33:44.949Z,0.00
2023-01-09T04:34:44.946Z,0.00
2023-01-09T04:35:44.939Z,0.00
2023-01-09T04:36:44.909Z,0.00
2023-01-09T04:37:44.954Z,0.00
2023-01-09T04:38:44.892Z,0.00
2023-01-09T04:39:44.909Z,0.00
2023-01-09T04:40:44.916Z,0.00
2023-01-09T04:41:44.862Z,0.00
2023-01-09T04:42:44.864Z,0.00
2023-01-09T04:43:44.846Z,0.00
2023-01-09T04:44:44.829Z,0.00
2023-01-09T04:45:44.875Z,0.00
2023-01-09T04:46:44.813Z,0.00
2023-01-09T04:47:44.830Z,0.00
2023-01-09T04:48:44.788Z,0.00
2023-01-09T04:49:44.788Z,0.00
2023-01-09T04:50:44.753Z,0.00
2023-01-09T04:51:44.809Z,0.00
2023-01-09T04:52:44.725Z,0.00
2023-01-09T04:53:44.772Z,0.00
2023-01-09T04:54:44.728Z,0.00
2023-01-09T04:55:44.704Z,0.00
2023-01-09T04:56:44.780Z,0.00
2023-01-09T04:57:44.683Z,0.00
2023-01-09T04:58:44.682Z,0.00
2023-01-09T04:59:44.676Z,0.00
2023-01-09T05:00:44.833Z,0.00
2023-01-09T05:01:44.775Z,0.00
2023-01-09T05:02:44.631Z,0.00
2023-01-09T05:03:44.611Z,0.00
2023-01-09T05:04:44.627Z,0.00
2023-01-09T05:05:44.640Z,0.00
2023-01-09T05:06:44.600Z,0.00
2023-01-09T05:07:44.578Z,0.00
2023-01-09T05:08:44.558Z,0.00
2023-01-09T05:09:44.604Z,0.00
2023-01-09T05:10:44.541Z,0.00
2023-01-09T05:11:44.542Z,0.00
2023-01-09T05:12:44.562Z,0.00
2023-01-09T05:13:44.548Z,0.00
2023-01-09T05:14:44.503Z,0.00
2023-01-09T05:15:44.506Z,0.00
2023-01-09T05:16:44.523Z,0.00
2023-01-09T05:17:44.459Z,0.00
2023-01-09T05:18:44.464Z,0.00
2023-01-09T05:19:44.436Z,0.00
2023-01-09T05:20:44.430Z,0.00
2023-01-09T05:21:44.415Z,0.00
2023-01-09T05:22:44.409Z,0.00
2023-01-09T05:23:44.395Z,0.00
2023-01-09T05:24:44.392Z,0.00
2023-01-09T05:25:44.408Z,0.00
2023-01-09T05:26:44.349Z,0.00
2023-01-09T05:27:44.348Z,0.00
2023-01-09T05:28:44.344Z,0.00
2023-01-09T05:29:44.334Z,0.00
2023-01-09T05:30:44.329Z,0.00
2023-01-09T05:31:44.413Z,0.00
2023-01-09T05:32:44.294Z,0.00
2023-01-09T05:33:44.279Z,0.00
2023-01-09T05:34:44.287Z,0.00
2023-01-09T05:35:44.302Z,0.00
2023-01-09T05:36:44.249Z,0.00
2023-01-09T05:37:44.245Z,0.00
2023-01-09T05:38:44.223Z,0.00
2023-01-09T05:39:44.224Z,0.00
2023-01-09T05:40:44.234Z,0.00
2023-01-09T05:41:44.321Z,0.00
2023-01-09T05:42:44.188Z,0.00
2023-01-09T05:43:44.171Z,0.00
2023-01-09T05:44:44.182Z,0.00
2023-01-09T05:45:44.199Z,0.00
2023-01-09T05:46:44.184Z,0.00
2023-01-09T05:47:44.149Z,0.00
2023-01-09T05:48:44.113Z,0.00
2023-01-09T05:49:44.102Z,0.00
2023-01-09T05:50:44.109Z,0.00
2023-01-09T05:51:44.081Z,0.00
2023-01-09T05:52:44.073Z,0.00
2023-01-09T05:53:44.061Z,0.00
2023-01-09T05:54:44.071Z,0.00
2023-01-09T05:55:44.048Z,0.00
2023-01-09T05:56:44.046Z,0.00
2023-01-09T05:57:44.030Z,0.00
2023-01-09T05:58:44.014Z,0.00
2023-01-09T05:59:43.987Z,0.00
2023-01-09T06:00:43.995Z,0.00
2023-01-09T06:01:44.021Z,0.00
2023-01-09T06:02:44.024Z,0.00
2023-01-09T06:03:43.956Z,0.00
2023-01-09T06:04:43.927Z,0.00
2023-01-09T06:05:44.115Z,0.00
2023-01-09T06:06:43.939Z,0.00
2023-01-09T06:07:43.912Z,0.00
2023-01-09T06:08:43.905Z,0.00
2023-01-09T06:09:43.890Z,0.00
2023-01-09T06:10:43.873Z,0.00
2023-01-09T06:11:43.856Z,0.00
2023-01-09T06:12:43.878Z,0.00
2023-01-09T06:13:43.861Z,0.00
2023-01-09T06:14:43.844Z,0.00
2023-01-09T06:15:43.891Z,0.00
2023-01-09T06:16:43.870Z,0.00
2023-01-09T06:17:43.799Z,0.00
2023-01-09T06:18:43.794Z,0.00
2023-01-09T06:19:43.784Z,0.00
2023-01-09T06:20:43.781Z,0.00
2023-01-09T06:21:43.747Z,0.00
2023-01-09T06:22:43.722Z,0.00
2023-01-09T06:23:43.791Z,0.00
2023-01-09T06:24:43.738Z,0.00
2023-01-09T06:25:43.761Z,0.00
2023-01-09T06:26:43.700Z,0.00
2023-01-09T06:27:43.726Z,0.00
2023-01-09T06:28:44.765Z,0.00
2023-01-09T06:29:43.686Z,0.00
2023-01-09T06:30:43.668Z,0.00
2023-01-09T06:33:08.910Z,0.00
2023-01-09T06:34:08.811Z,0.00
2023-01-09T06:35:08.801Z,0.00
2023-01-09T06:36:09.689Z,0.00
2023-01-09T06:37:08.823Z,4.00
2023-01-09T06:38:28.395Z,4.00
2023-01-09T06:39:37.095Z,0.00
2023-01-09T06:40:08.743Z,4.00
2023-01-09T06:41:08.737Z,4.00
2023-01-09T06:42:08.734Z,4.00
2023-01-09T06:43:18.809Z,4.00
2023-01-09T06:44:08.692Z,8.00
2023-01-09T06:45:08.693Z,12.00
2023-01-09T06:46:08.780Z,12.00
2023-01-09T06:47:17.913Z,16.00
2023-01-09T06:48:08.656Z,16.00
2023-01-09T06:49:09.939Z,20.00
2023-01-09T06:50:19.380Z,20.00
2023-01-09T06:51:08.660Z,20.00
2023-01-09T06:52:08.624Z,20.00
2023-01-09T06:53:08.612Z,20.00
2023-01-09T06:54:08.593Z,32.00
2023-01-09T06:55:08.576Z,36.00
2023-01-09T06:56:08.575Z,44.00
2023-01-09T06:57:08.597Z,52.00
2023-01-09T06:58:17.866Z,52.00
2023-01-09T06:59:08.533Z,56.00
2023-01-09T07:00:08.555Z,64.00
2023-01-09T07:01:08.661Z,68.00
2023-01-09T07:02:08.561Z,68.00
2023-01-09T07:03:08.525Z,76.00
2023-01-09T07:04:08.577Z,80.00
2023-01-09T07:06:24.136Z,100.00
2023-01-09T07:09:23.869Z,132.00
2023-01-09T07:10:23.886Z,132.00
2023-01-09T07:11:23.975Z,140.00
2023-01-09T07:12:23.960Z,160.00
2023-01-09T07:13:35.406Z,176.00
2023-01-09T07:14:23.822Z,188.00
2023-01-09T07:15:23.822Z,200.00
2023-01-09T07:16:24.031Z,208.00
2023-01-09T07:17:24.572Z,244.00
2023-01-09T07:18:23.784Z,272.00
2023-01-09T07:19:23.793Z,304.00
2023-01-09T07:20:23.774Z,336.00
2023-01-09T07:21:34.912Z,348.00
2023-01-09T07:22:23.983Z,320.00
2023-01-09T07:23:23.787Z,312.00
2023-01-09T07:24:24.985Z,352.00
2023-01-09T07:25:23.715Z,328.00
2023-01-09T07:26:24.324Z,300.00
2023-01-09T07:27:37.496Z,300.00
2023-01-09T07:28:23.688Z,304.00
2023-01-09T07:29:23.659Z,304.00
2023-01-09T07:30:23.654Z,276.00
2023-01-09T07:31:32.476Z,320.00
2023-01-09T07:32:23.701Z,332.00
2023-01-09T07:33:23.609Z,352.00
2023-01-09T07:34:23.642Z,376.00
2023-01-09T07:35:36.961Z,372.00
2023-01-09T07:36:23.597Z,328.00
2023-01-09T07:39:32.480Z,408.00
2023-01-09T07:40:32.642Z,388.00
2023-01-09T07:42:53.728Z,616.00
2023-01-09T07:43:54.251Z,612.00
2023-01-09T07:45:11.201Z,608.00
2023-01-09T07:45:53.304Z,616.00
2023-01-09T07:46:53.298Z,684.00
2023-01-09T07:47:53.262Z,692.00
2023-01-09T07:49:08.788Z,680.00
2023-01-09T07:49:53.259Z,792.00
2023-01-09T07:50:53.331Z,844.00
2023-01-09T07:51:53.275Z,820.00
2023-01-09T07:54:35.029Z,784.00
2023-01-09T07:55:17.569Z,856.00
2023-01-09T07:56:16.427Z,852.00
2023-01-09T07:57:16.392Z,964.00
2023-01-09T07:58:16.373Z,1112.00
2023-01-09T07:59:16.329Z,1360.00
2023-01-09T08:00:32.890Z,1188.00
2023-01-09T08:01:16.393Z,976.00
2023-01-09T08:02:16.309Z,984.00
2023-01-09T08:03:17.346Z,1104.00
2023-01-09T08:04:16.280Z,1200.00
2023-01-09T08:05:16.252Z,1216.00
2023-01-09T08:06:16.270Z,992.00
2023-01-09T08:07:16.264Z,992.00
2023-01-09T08:08:16.218Z,1164.00
2023-01-09T08:09:16.272Z,1148.00
2023-01-09T08:10:16.205Z,1144.00
2023-01-09T08:11:16.266Z,1152.00
2023-01-09T08:12:16.226Z,1156.00
2023-01-09T08:13:16.207Z,1012.00
2023-01-09T08:14:16.900Z,1052.00
2023-01-09T08:15:16.218Z,992.00
2023-01-09T08:16:16.211Z,980.00
2023-01-09T08:17:16.216Z,996.00
2023-01-09T08:18:16.135Z,1072.00
2023-01-09T08:19:16.127Z,1124.00
2023-01-09T08:20:16.867Z,1212.00
2023-01-09T08:21:16.114Z,1740.00
2023-01-09T08:22:16.137Z,1884.00
2023-01-09T08:23:16.168Z,2136.00
2023-01-09T08:24:16.084Z,2376.00
2023-01-09T08:25:16.065Z,2688.00
2023-01-09T08:26:16.033Z,2140.00
2023-01-09T08:27:16.014Z,1800.00
2023-01-09T08:28:16.022Z,1892.00
2023-01-09T08:29:16.812Z,1836.00
2023-01-09T08:30:15.990Z,1628.00
2023-01-09T08:31:16.092Z,1376.00
2023-01-09T08:32:15.944Z,1380.00
2023-01-09T08:33:15.949Z,1608.00
2023-01-09T08:34:16.782Z,1532.00
2023-01-09T08:35:15.961Z,1620.00
2023-01-09T08:36:24.344Z,1696.00
2023-01-09T08:37:15.893Z,1912.00
2023-01-09T08:38:15.892Z,2296.00
2023-01-09T08:39:15.872Z,2220.00
2023-01-09T08:40:15.888Z,2016.00
2023-01-09T08:41:15.867Z,2716.00
2023-01-09T08:42:15.839Z,3196.00
2023-01-09T08:43:15.878Z,3180.00
2023-01-09T08:44:15.839Z,2664.00
2023-01-09T08:45:15.811Z,2644.00
2023-01-09T08:46:15.817Z,2676.00
2023-01-09T08:47:15.851Z,2792.00
2023-01-09T08:48:15.787Z,2956.00
2023-01-09T08:49:15.770Z,3116.00
2023-01-09T08:50:16.314Z,3428.00
2023-01-09T08:51:15.791Z,3160.00
2023-01-09T08:52:15.852Z,3308.00
2023-01-09T08:53:15.744Z,3124.00
2023-01-09T08:54:15.706Z,2984.00
2023-01-09T08:55:15.717Z,3216.00
2023-01-09T08:56:15.724Z,3216.00
2023-01-09T08:57:15.737Z,3060.00
2023-01-09T08:58:15.912Z,2888.00
2023-01-09T08:59:23.828Z,2756.00
2023-01-09T09:00:15.634Z,2688.00
2023-01-09T09:01:15.716Z,2700.00
2023-01-09T09:02:15.651Z,2740.00
2023-01-09T09:03:15.644Z,2872.00
2023-01-09T09:04:15.648Z,3040.00
2023-01-09T09:05:15.611Z,3156.00
2023-01-09T09:06:15.582Z,3232.00
2023-01-09T09:07:15.582Z,3272.00
2023-01-09T09:08:16.396Z,3336.00
2023-01-09T09:09:15.573Z,3448.00
2023-01-09T09:10:15.551Z,3552.00
2023-01-09T09:11:15.537Z,3632.00
2023-01-09T09:12:15.498Z,3616.00
2023-01-09T09:13:15.535Z,3620.00
2023-01-09T09:14:15.526Z,3712.00
2023-01-09T09:15:15.509Z,3848.00
2023-01-09T09:16:15.565Z,4016.00
2023-01-09T09:17:15.452Z,4164.00
2023-01-09T09:18:15.453Z,4344.00
2023-01-09T09:19:15.432Z,4668.00
2023-01-09T09:20:15.685Z,5124.00
2023-01-09T09:21:15.430Z,5504.00
2023-01-09T09:22:15.465Z,5568.00
2023-01-09T09:23:15.421Z,5412.00
2023-01-09T09:24:15.418Z,5112.00
2023-01-09T09:25:15.409Z,4732.00
2023-01-09T09:26:15.404Z,4304.00
2023-01-09T09:27:15.365Z,3932.00
2023-01-09T09:28:15.343Z,3792.00
2023-01-09T09:29:15.326Z,3708.00
2023-01-09T09:30:15.340Z,3472.00
2023-01-09T09:31:15.374Z,3140.00
2023-01-09T09:32:15.310Z,2984.00
2023-01-09T09:33:15.351Z,2980.00
2023-01-09T09:34:15.287Z,2980.00
2023-01-09T09:35:15.263Z,3004.00
2023-01-09T09:36:15.241Z,3128.00
2023-01-09T09:37:15.265Z,3244.00
2023-01-09T09:38:15.217Z,3324.00
2023-01-09T09:39:15.384Z,3416.00
2023-01-09T09:40:18.704Z,3608.00
2023-01-09T09:41:15.241Z,3924.00
2023-01-09T09:42:15.217Z,4316.00
2023-01-09T09:43:15.189Z,4640.00
2023-01-09T09:44:15.215Z,4844.00
2023-01-09T09:45:15.885Z,5028.00
2023-01-09T09:46:15.211Z,5252.00
2023-01-09T09:47:15.181Z,5488.00
2023-01-09T09:48:15.111Z,5836.00
2023-01-09T09:49:15.127Z,6032.00
2023-01-09T09:50:15.099Z,6188.00
2023-01-09T09:51:15.093Z,6228.00
2023-01-09T09:52:15.086Z,6108.00
2023-01-09T09:53:15.098Z,5884.00
2023-01-09T09:54:15.062Z,5680.00
2023-01-09T09:55:15.039Z,5352.00
2023-01-09T09:56:15.058Z,4976.00
2023-01-09T09:57:15.109Z,4628.00
2023-01-09T09:58:15.016Z,4444.00
2023-01-09T09:59:15.028Z,4376.00
2023-01-09T10:00:15.031Z,4436.00
2023-01-09T10:01:15.001Z,4540.00
2023-01-09T10:02:15.005Z,4548.00
2023-01-09T10:03:18.354Z,4468.00
2023-01-09T10:04:15.395Z,4456.00
2023-01-09T10:05:14.925Z,4520.00
2023-01-09T10:06:14.932Z,4652.00
2023-01-09T10:07:14.934Z,4896.00
2023-01-09T10:08:16.028Z,5192.00
2023-01-09T10:09:14.941Z,5472.00
2023-01-09T10:10:14.889Z,5672.00
2023-01-09T10:11:14.877Z,5712.00
2023-01-09T10:12:14.926Z,5668.00
2023-01-09T10:13:14.925Z,5572.00
2023-01-09T10:14:23.636Z,5440.00
2023-01-09T10:15:14.846Z,5344.00
2023-01-09T10:16:15.926Z,5352.00
2023-01-09T10:17:14.828Z,5480.00
2023-01-09T10:18:14.808Z,5548.00
2023-01-09T10:19:14.801Z,5424.00
2023-01-09T10:20:14.784Z,5204.00
2023-01-09T10:21:14.780Z,5076.00
2023-01-09T10:22:14.811Z,5164.00
2023-01-09T10:23:14.881Z,5272.00
2023-01-09T10:24:14.744Z,5552.00
2023-01-09T10:25:14.756Z,5744.00
2023-01-09T10:26:14.711Z,5784.00
2023-01-09T10:27:14.772Z,5664.00
2023-01-09T10:28:14.874Z,5444.00
2023-01-09T10:29:14.697Z,5224.00
2023-01-09T10:30:14.890Z,5028.00
2023-01-09T10:31:14.670Z,4900.00
2023-01-09T10:32:14.612Z,4848.00
2023-01-09T10:33:14.657Z,4848.00
2023-01-09T10:34:15.340Z,4768.00
2023-01-09T10:35:14.700Z,4656.00
2023-01-09T10:37:27.735Z,4812.00
2023-01-09T10:38:28.217Z,5016.00
2023-01-09T10:39:27.272Z,5308.00
2023-01-09T10:40:27.235Z,5572.00
2023-01-09T10:41:27.241Z,5820.00
2023-01-09T10:42:27.202Z,5968.00
2023-01-09T10:43:28.091Z,6064.00
2023-01-09T10:44:27.182Z,6136.00
2023-01-09T10:45:27.194Z,6288.00
2023-01-09T10:46:27.295Z,6452.00
2023-01-09T10:47:27.262Z,6532.00
2023-01-09T10:48:27.153Z,6412.00
2023-01-09T10:49:27.140Z,6296.00
2023-01-09T10:50:27.169Z,5988.00
2023-01-09T10:51:27.092Z,5560.00
2023-01-09T10:52:27.094Z,5256.00
2023-01-09T10:53:27.119Z,5080.00
2023-01-09T10:54:27.057Z,5084.00
2023-01-09T10:55:27.091Z,5308.00
2023-01-09T10:56:27.085Z,5700.00
2023-01-09T10:57:27.085Z,5776.00
2023-01-09T10:58:27.071Z,5596.00
2023-01-09T10:59:27.094Z,5240.00
2023-01-09T11:00:27.004Z,4960.00
2023-01-09T11:01:27.057Z,4832.00
2023-01-09T11:02:27.071Z,4748.00
2023-01-09T11:03:27.086Z,4624.00
2023-01-09T11:04:27.002Z,4532.00
2023-01-09T11:05:28.147Z,4480.00
2023-01-09T11:06:27.016Z,4556.00
2023-01-09T11:07:27.001Z,4700.00
2023-01-09T11:08:26.923Z,4804.00
2023-01-09T11:09:27.200Z,4832.00
2023-01-09T11:10:26.897Z,4804.00
2023-01-09T11:11:28.822Z,4704.00
2023-01-09T11:12:26.874Z,4596.00
2023-01-09T11:13:27.830Z,4556.00
2023-01-09T11:14:26.833Z,4576.00
2023-01-09T11:15:26.840Z,4664.00
2023-01-09T11:16:29.164Z,4976.00
2023-01-09T11:17:28.924Z,5172.00
2023-01-09T11:18:28.691Z,5260.00
2023-01-09T11:19:37.316Z,5276.00
2023-01-09T11:20:26.776Z,5232.00
2023-01-09T11:21:26.773Z,5076.00
2023-01-09T11:22:26.744Z,4912.00
2023-01-09T11:23:26.774Z,4760.00
2023-01-09T11:24:26.754Z,4616.00
2023-01-09T11:25:26.731Z,4540.00
2023-01-09T11:26:26.753Z,4540.00
2023-01-09T11:27:26.694Z,4504.00
2023-01-09T11:28:26.693Z,4428.00
2023-01-09T11:29:26.697Z,4360.00
2023-01-09T11:30:26.697Z,4328.00
2023-01-09T11:31:26.711Z,4352.00
2023-01-09T11:32:26.677Z,4404.00
2023-01-09T11:33:26.707Z,4436.00
2023-01-09T11:34:26.672Z,4448.00
2023-01-09T11:35:26.632Z,4404.00
2023-01-09T11:36:26.588Z,4352.00
2023-01-09T11:37:26.578Z,4332.00
2023-01-09T11:38:26.585Z,4360.00
2023-01-09T11:39:26.584Z,4448.00
2023-01-09T11:40:26.621Z,4668.00
2023-01-09T11:41:26.547Z,5024.00
2023-01-09T11:42:26.512Z,5408.00
2023-01-09T11:43:26.535Z,5664.00
2023-01-09T11:44:26.544Z,5716.00
2023-01-09T11:45:26.556Z,5680.00
2023-01-09T11:46:26.509Z,5648.00
2023-01-09T11:47:26.477Z,5644.00
2023-01-09T11:48:26.475Z,5604.00
2023-01-09T11:49:26.435Z,5576.00
2023-01-09T11:50:26.429Z,5536.00
2023-01-09T11:51:26.442Z,5532.00
2023-01-09T11:52:26.561Z,5564.00
2023-01-09T11:53:26.388Z,5536.00
2023-01-09T11:54:26.442Z,5448.00
2023-01-09T11:55:34.749Z,5320.00
2023-01-09T11:56:26.389Z,5216.00
2023-01-09T11:57:26.346Z,5156.00
2023-01-09T11:58:26.339Z,5148.00
2023-01-09T11:59:26.347Z,5152.00
2023-01-09T12:00:26.354Z,5144.00
2023-01-09T12:01:26.324Z,5164.00
2023-01-09T12:02:26.304Z,5196.00
2023-01-09T12:03:26.364Z,5212.00
2023-01-09T12:04:26.334Z,5208.00
2023-01-09T12:05:26.254Z,5288.00
2023-01-09T12:06:26.287Z,5452.00
2023-01-09T12:07:26.300Z,5680.00
2023-01-09T12:08:26.281Z,5920.00
2023-01-09T12:09:26.236Z,6108.00
2023-01-09T12:10:26.218Z,6228.00
2023-01-09T12:11:26.202Z,6308.00
2023-01-09T12:12:26.222Z,6412.00
2023-01-09T12:13:26.192Z,6504.00
2023-01-09T12:14:26.184Z,6468.00
2023-01-09T12:15:26.181Z,6296.00
2023-01-09T12:16:26.180Z,6032.00
2023-01-09T12:17:26.147Z,5816.00
2023-01-09T12:18:26.123Z,5716.00
2023-01-09T12:19:26.141Z,5672.00
2023-01-09T12:20:26.171Z,5724.00
2023-01-09T12:21:26.144Z,5772.00
2023-01-09T12:22:26.068Z,5764.00
2023-01-09T12:23:26.095Z,5696.00
2023-01-09T12:24:26.070Z,5588.00
2023-01-09T12:25:26.112Z,5512.00
2023-01-09T12:26:26.029Z,5428.00
2023-01-09T12:27:26.035Z,5292.00
2023-01-09T12:28:26.029Z,5168.00
2023-01-09T12:29:26.055Z,5096.00
2023-01-09T12:30:25.999Z,5084.00
2023-01-09T12:31:26.059Z,5020.00
2023-01-09T12:32:25.987Z,4860.00
2023-01-09T12:33:25.983Z,4700.00
2023-01-09T12:34:26.017Z,4552.00
2023-01-09T12:35:25.918Z,4508.00
2023-01-09T12:36:25.916Z,4484.00
2023-01-09T12:37:25.903Z,4480.00
2023-01-09T12:38:25.933Z,4508.00
2023-01-09T12:39:26.049Z,4580.00
2023-01-09T12:40:25.934Z,4676.00
2023-01-09T12:41:26.822Z,4776.00
2023-01-09T12:42:25.863Z,4876.00
2023-01-09T12:43:25.859Z,4992.00
2023-01-09T12:44:35.111Z,5068.00
2023-01-09T12:45:26.822Z,5020.00
2023-01-09T12:46:25.808Z,4856.00
2023-01-09T12:47:25.908Z,4656.00
2023-01-09T12:48:25.786Z,4512.00
2023-01-09T12:49:25.827Z,4532.00
2023-01-09T12:50:25.802Z,4684.00
2023-01-09T12:51:25.764Z,4732.00
2023-01-09T12:52:25.743Z,4616.00
2023-01-09T12:53:25.821Z,4432.00
2023-01-09T12:54:25.738Z,4232.00
2023-01-09T12:55:25.701Z,4072.00
2023-01-09T12:56:25.704Z,4008.00